KBVE

Boothville Airport

Boothville, Louisiana, USA
METAR KBVE 220951Z AUTO 00000KT 10SM CLR 26/23 A2998 RMK AO2 SLP151 T02560228
Observed Flight Rules
May-22 @ 09:51 UTC (28 minutes ago) Visual Flight Rules
Visibility Clouds
10 miles
  • Clear skies
Temperatures Readings
Current 26°C / 79°F
Dewpoint 23°C / 73°F
Humidity 84%
Altimeter 29.98" Hg
Pressure 1015.1 hPa
Elevation 1
METAR KBVE 220951Z AUTO 00000KT 10SM CLR 26/23 A2998 RMK AO2 SLP151 T02560228
Observed Flight Rules
May-22 @ 09:51 UTC
(28 minutes ago)
VFR
Clouds
  • Clear skies
Temperature Dewpoint
26°C / 79°F 23°C / 73°F
Humidity Altimeter Pressure
84% 29.98" Hg 1015.1 hPa